sensor_id;sensor_type;location;lat;lon;timestamp;pressure;altitude;pressure_sealevel;temperature;humidity
57900;BME280;60605;53.716;19.940;2023-09-30T00:00:03;100313.68;;;17.27;100.00
57900;BME280;60605;53.716;19.940;2023-09-30T00:05:07;100317.21;;;17.25;100.00
57900;BME280;60605;53.716;19.940;2023-09-30T00:10:11;100323.11;;;17.22;100.00
57900;BME280;60605;53.716;19.940;2023-09-30T00:15:15;100329.00;;;17.20;100.00
57900;BME280;60605;53.716;19.940;2023-09-30T00:20:18;100321.88;;;17.16;100.00
57900;BME280;60605;53.716;19.940;2023-09-30T00:25:22;100317.92;;;17.13;100.00
57900;BME280;60605;53.716;19.940;2023-09-30T00:30:25;100320.66;;;17.12;100.00
57900;BME280;60605;53.716;19.940;2023-09-30T00:35:32;100318.11;;;17.11;100.00
57900;BME280;60605;53.716;19.940;2023-09-30T00:40:35;100312.42;;;17.09;100.00
57900;BME280;60605;53.716;19.940;2023-09-30T00:45:39;100307.05;;;17.08;100.00
57900;BME280;60605;53.716;19.940;2023-09-30T00:50:43;100308.59;;;17.09;100.00
57900;BME280;60605;53.716;19.940;2023-09-30T00:55:47;100311.78;;;17.08;100.00
57900;BME280;60605;53.716;19.940;2023-09-30T01:00:50;100327.95;;;17.07;100.00
57900;BME280;60605;53.716;19.940;2023-09-30T01:05:54;100325.11;;;17.07;100.00
57900;BME280;60605;53.716;19.940;2023-09-30T01:10:58;100316.88;;;17.08;100.00
57900;BME280;60605;53.716;19.940;2023-09-30T01:16:07;100312.28;;;17.11;100.00
57900;BME280;60605;53.716;19.940;2023-09-30T01:21:13;100313.09;;;17.13;100.00
57900;BME280;60605;53.716;19.940;2023-09-30T01:26:16;100304.40;;;17.14;100.00
57900;BME280;60605;53.716;19.940;2023-09-30T01:31:19;100298.91;;;17.15;100.00
57900;BME280;60605;53.716;19.940;2023-09-30T01:36:23;100300.17;;;17.17;100.00
57900;BME280;60605;53.716;19.940;2023-09-30T01:41:26;100294.14;;;17.17;100.00
57900;BME280;60605;53.716;19.940;2023-09-30T01:46:29;100289.88;;;17.17;100.00
57900;BME280;60605;53.716;19.940;2023-09-30T01:51:33;100278.83;;;17.16;100.00
57900;BME280;60605;53.716;19.940;2023-09-30T01:56:36;100273.69;;;17.17;100.00
57900;BME280;60605;53.716;19.940;2023-09-30T02:01:40;100269.18;;;17.18;100.00
57900;BME280;60605;53.716;19.940;2023-09-30T02:06:43;100260.69;;;17.18;100.00
57900;BME280;60605;53.716;19.940;2023-09-30T02:11:47;100257.66;;;17.16;100.00
57900;BME280;60605;53.716;19.940;2023-09-30T02:16:50;100254.59;;;17.12;100.00
57900;BME280;60605;53.716;19.940;2023-09-30T02:21:54;100257.91;;;17.09;100.00
57900;BME280;60605;53.716;19.940;2023-09-30T02:26:57;100258.77;;;17.08;100.00
57900;BME280;60605;53.716;19.940;2023-09-30T02:32:01;100248.72;;;17.07;100.00
57900;BME280;60605;53.716;19.940;2023-09-30T02:37:04;100253.67;;;17.08;100.00
57900;BME280;60605;53.716;19.940;2023-09-30T02:42:07;100257.54;;;17.10;100.00
57900;BME280;60605;53.716;19.940;2023-09-30T02:47:11;100258.67;;;17.13;100.00
57900;BME280;60605;53.716;19.940;2023-09-30T02:52:14;100260.37;;;17.15;100.00
57900;BME280;60605;53.716;19.940;2023-09-30T02:57:18;100264.79;;;17.15;100.00
57900;BME280;60605;53.716;19.940;2023-09-30T03:02:22;100264.75;;;17.16;100.00
57900;BME280;60605;53.716;19.940;2023-09-30T03:07:25;100261.29;;;17.15;100.00
57900;BME280;60605;53.716;19.940;2023-09-30T03:12:29;100261.55;;;17.13;100.00
57900;BME280;60605;53.716;19.940;2023-09-30T03:17:32;100263.29;;;17.10;100.00
57900;BME280;60605;53.716;19.940;2023-09-30T03:22:35;100261.80;;;17.06;100.00
57900;BME280;60605;53.716;19.940;2023-09-30T03:27:40;100252.13;;;17.03;100.00
57900;BME280;60605;53.716;19.940;2023-09-30T03:32:44;100242.74;;;17.00;100.00
57900;BME280;60605;53.716;19.940;2023-09-30T03:37:48;100251.61;;;17.00;100.00
57900;BME280;60605;53.716;19.940;2023-09-30T03:42:51;100254.44;;;16.99;100.00
57900;BME280;60605;53.716;19.940;2023-09-30T03:47:54;100252.00;;;16.98;100.00
57900;BME280;60605;53.716;19.940;2023-09-30T03:53:02;100262.93;;;16.99;100.00
57900;BME280;60605;53.716;19.940;2023-09-30T03:58:08;100264.43;;;16.99;100.00
57900;BME280;60605;53.716;19.940;2023-09-30T04:03:11;100268.94;;;16.97;100.00
57900;BME280;60605;53.716;19.940;2023-09-30T04:08:15;100275.63;;;16.95;100.00
57900;BME280;60605;53.716;19.940;2023-09-30T04:13:18;100274.48;;;16.92;100.00
57900;BME280;60605;53.716;19.940;2023-09-30T04:18:27;100272.90;;;16.89;100.00
57900;BME280;60605;53.716;19.940;2023-09-30T04:23:30;100269.27;;;16.85;100.00
57900;BME280;60605;53.716;19.940;2023-09-30T04:28:33;100272.85;;;16.81;100.00
57900;BME280;60605;53.716;19.940;2023-09-30T04:33:37;100277.67;;;16.76;100.00
57900;BME280;60605;53.716;19.940;2023-09-30T04:38:40;100278.36;;;16.70;100.00
57900;BME280;60605;53.716;19.940;2023-09-30T04:43:44;100280.10;;;16.65;100.00
57900;BME280;60605;53.716;19.940;2023-09-30T04:48:47;100284.43;;;16.62;100.00
57900;BME280;60605;53.716;19.940;2023-09-30T04:53:51;100296.20;;;16.61;100.00
57900;BME280;60605;53.716;19.940;2023-09-30T04:58:55;100302.80;;;16.60;100.00
57900;BME280;60605;53.716;19.940;2023-09-30T05:03:58;100308.97;;;16.59;100.00
57900;BME280;60605;53.716;19.940;2023-09-30T05:09:02;100318.02;;;16.62;100.00
57900;BME280;60605;53.716;19.940;2023-09-30T05:14:06;100326.39;;;16.66;100.00
57900;BME280;60605;53.716;19.940;2023-09-30T05:19:09;100338.14;;;16.70;100.00
57900;BME280;60605;53.716;19.940;2023-09-30T05:24:13;100341.23;;;16.74;100.00
57900;BME280;60605;53.716;19.940;2023-09-30T05:29:16;100347.92;;;16.80;100.00
57900;BME280;60605;53.716;19.940;2023-09-30T05:34:20;100362.23;;;16.86;100.00
57900;BME280;60605;53.716;19.940;2023-09-30T05:39:23;100365.55;;;16.91;100.00
57900;BME280;60605;53.716;19.940;2023-09-30T05:44:29;100365.07;;;16.97;100.00
57900;BME280;60605;53.716;19.940;2023-09-30T05:49:32;100367.42;;;17.02;100.00
57900;BME280;60605;53.716;19.940;2023-09-30T05:54:35;100368.77;;;17.07;100.00
57900;BME280;60605;53.716;19.940;2023-09-30T05:59:40;100371.56;;;17.11;100.00
57900;BME280;60605;53.716;19.940;2023-09-30T06:04:44;100374.76;;;17.14;100.00
57900;BME280;60605;53.716;19.940;2023-09-30T06:09:49;100382.27;;;17.17;100.00
57900;BME280;60605;53.716;19.940;2023-09-30T06:14:53;100393.23;;;17.22;100.00
57900;BME280;60605;53.716;19.940;2023-09-30T06:19:56;100395.90;;;17.26;100.00
57900;BME280;60605;53.716;19.940;2023-09-30T06:25:04;100406.43;;;17.30;100.00
57900;BME280;60605;53.716;19.940;2023-09-30T06:30:08;100422.98;;;17.34;100.00
57900;BME280;60605;53.716;19.940;2023-09-30T06:35:12;100433.41;;;17.24;100.00
57900;BME280;60605;53.716;19.940;2023-09-30T06:40:16;100450.20;;;17.03;100.00
57900;BME280;60605;53.716;19.940;2023-09-30T06:45:20;100463.23;;;16.84;100.00
57900;BME280;60605;53.716;19.940;2023-09-30T06:50:25;100467.05;;;16.67;100.00
57900;BME280;60605;53.716;19.940;2023-09-30T06:55:28;100477.86;;;16.56;100.00
57900;BME280;60605;53.716;19.940;2023-09-30T07:00:34;100498.59;;;16.46;100.00
57900;BME280;60605;53.716;19.940;2023-09-30T07:05:40;100510.40;;;16.36;100.00
57900;BME280;60605;53.716;19.940;2023-09-30T07:10:46;100513.17;;;16.28;100.00
57900;BME280;60605;53.716;19.940;2023-09-30T07:15:49;100523.92;;;16.21;100.00
57900;BME280;60605;53.716;19.940;2023-09-30T07:20:53;100532.18;;;16.18;100.00
57900;BME280;60605;53.716;19.940;2023-09-30T07:25:57;100544.72;;;16.19;100.00
57900;BME280;60605;53.716;19.940;2023-09-30T07:31:00;100550.68;;;16.27;100.00
57900;BME280;60605;53.716;19.940;2023-09-30T07:36:04;100553.25;;;16.37;100.00
57900;BME280;60605;53.716;19.940;2023-09-30T07:41:07;100561.17;;;16.50;100.00
57900;BME280;60605;53.716;19.940;2023-09-30T07:46:13;100565.17;;;16.71;100.00
57900;BME280;60605;53.716;19.940;2023-09-30T07:51:18;100572.66;;;17.08;100.00
57900;BME280;60605;53.716;19.940;2023-09-30T07:56:22;100572.81;;;17.80;100.00
57900;BME280;60605;53.716;19.940;2023-09-30T08:01:28;100581.89;;;18.44;100.00
57900;BME280;60605;53.716;19.940;2023-09-30T08:06:33;100587.99;;;18.81;100.00
57900;BME280;60605;53.716;19.940;2023-09-30T08:11:36;100600.30;;;19.01;99.19
57900;BME280;60605;53.716;19.940;2023-09-30T08:16:40;100607.42;;;19.09;97.72
57900;BME280;60605;53.716;19.940;2023-09-30T08:21:44;100614.23;;;19.17;96.08
57900;BME280;60605;53.716;19.940;2023-09-30T08:26:48;100612.43;;;19.04;94.09
57900;BME280;60605;53.716;19.940;2023-09-30T08:31:51;100612.52;;;18.86;93.83
57900;BME280;60605;53.716;19.940;2023-09-30T08:36:55;100622.80;;;18.92;93.86
57900;BME280;60605;53.716;19.940;2023-09-30T08:42:01;100633.86;;;19.82;91.63
57900;BME280;60605;53.716;19.940;2023-09-30T08:47:08;100639.40;;;23.47;82.34
57900;BME280;60605;53.716;19.940;2023-09-30T08:52:15;100654.69;;;26.36;66.38
57900;BME280;60605;53.716;19.940;2023-09-30T08:57:27;100660.12;;;27.01;60.45
57900;BME280;60605;53.716;19.940;2023-09-30T09:02:34;100670.10;;;28.68;53.78
57900;BME280;60605;53.716;19.940;2023-09-30T09:07:37;100670.63;;;30.54;50.30
57900;BME280;60605;53.716;19.940;2023-09-30T09:12:41;100676.98;;;32.10;47.79
57900;BME280;60605;53.716;19.940;2023-09-30T09:17:46;100677.04;;;32.76;44.42
57900;BME280;60605;53.716;19.940;2023-09-30T09:22:51;100674.18;;;31.69;41.77
57900;BME280;60605;53.716;19.940;2023-09-30T09:27:56;100683.06;;;29.57;44.23
57900;BME280;60605;53.716;19.940;2023-09-30T09:33:02;100683.12;;;28.83;45.45
57900;BME280;60605;53.716;19.940;2023-09-30T09:38:07;100687.70;;;28.64;45.57
57900;BME280;60605;53.716;19.940;2023-09-30T09:43:11;100700.45;;;29.72;44.28
57900;BME280;60605;53.716;19.940;2023-09-30T09:48:15;100716.50;;;31.39;43.08
57900;BME280;60605;53.716;19.940;2023-09-30T09:53:20;100722.29;;;32.42;39.40
57900;BME280;60605;53.716;19.940;2023-09-30T09:58:24;100730.84;;;31.43;38.62
57900;BME280;60605;53.716;19.940;2023-09-30T10:03:29;100735.70;;;28.87;42.06
57900;BME280;60605;53.716;19.940;2023-09-30T10:08:37;100735.42;;;27.00;45.43
57900;BME280;60605;53.716;19.940;2023-09-30T10:13:56;100737.38;;;25.75;47.44
57900;BME280;60605;53.716;19.940;2023-09-30T10:19:13;100734.51;;;24.71;49.48
57900;BME280;60605;53.716;19.940;2023-09-30T10:29:42;100734.64;;;23.64;53.48
57900;BME280;60605;53.716;19.940;2023-09-30T10:34:49;100742.06;;;23.63;52.92
57900;BME280;60605;53.716;19.940;2023-09-30T10:39:57;100742.98;;;23.20;53.48
57900;BME280;60605;53.716;19.940;2023-09-30T10:45:04;100748.58;;;23.02;54.97
57900;BME280;60605;53.716;19.940;2023-09-30T10:55:58;100751.52;;;23.19;54.75
57900;BME280;60605;53.716;19.940;2023-09-30T11:01:01;100761.13;;;23.06;54.35
57900;BME280;60605;53.716;19.940;2023-09-30T11:06:05;100768.35;;;22.68;54.82
57900;BME280;60605;53.716;19.940;2023-09-30T11:11:14;100771.94;;;22.56;56.10
57900;BME280;60605;53.716;19.940;2023-09-30T11:16:18;100772.27;;;22.33;56.30
57900;BME280;60605;53.716;19.940;2023-09-30T11:21:22;100768.03;;;22.19;57.02
57900;BME280;60605;53.716;19.940;2023-09-30T11:26:32;100769.44;;;21.86;56.43
57900;BME280;60605;53.716;19.940;2023-09-30T11:31:38;100771.34;;;21.22;56.50
57900;BME280;60605;53.716;19.940;2023-09-30T11:36:50;100769.52;;;20.69;57.49
57900;BME280;60605;53.716;19.940;2023-09-30T11:41:55;100773.31;;;20.30;58.53
57900;BME280;60605;53.716;19.940;2023-09-30T11:47:01;100774.67;;;20.13;59.48
57900;BME280;60605;53.716;19.940;2023-09-30T11:52:11;100776.30;;;20.08;60.20
57900;BME280;60605;53.716;19.940;2023-09-30T11:57:16;100776.93;;;20.00;60.91
57900;BME280;60605;53.716;19.940;2023-09-30T12:02:20;100773.05;;;20.04;61.12
57900;BME280;60605;53.716;19.940;2023-09-30T12:07:23;100768.71;;;19.97;60.00
57900;BME280;60605;53.716;19.940;2023-09-30T12:12:26;100774.33;;;19.85;60.48
57900;BME280;60605;53.716;19.940;2023-09-30T12:17:29;100771.84;;;19.83;60.80
57900;BME280;60605;53.716;19.940;2023-09-30T12:22:33;100769.99;;;19.77;60.99
57900;BME280;60605;53.716;19.940;2023-09-30T12:27:36;100772.02;;;19.65;60.44
57900;BME280;60605;53.716;19.940;2023-09-30T12:32:43;100772.97;;;19.43;60.32
57900;BME280;60605;53.716;19.940;2023-09-30T12:37:46;100779.70;;;19.33;61.04
57900;BME280;60605;53.716;19.940;2023-09-30T12:42:50;100783.42;;;19.33;61.76
57900;BME280;60605;53.716;19.940;2023-09-30T12:47:53;100786.10;;;19.36;61.76
57900;BME280;60605;53.716;19.940;2023-09-30T12:53:00;100786.85;;;19.46;62.18
57900;BME280;60605;53.716;19.940;2023-09-30T12:58:03;100788.41;;;19.55;62.45
57900;BME280;60605;53.716;19.940;2023-09-30T13:03:07;100781.02;;;19.65;62.34
57900;BME280;60605;53.716;19.940;2023-09-30T13:08:11;100779.44;;;19.86;62.45
57900;BME280;60605;53.716;19.940;2023-09-30T13:13:14;100774.77;;;20.08;62.32
57900;BME280;60605;53.716;19.940;2023-09-30T13:18:18;100768.62;;;20.21;60.99
57900;BME280;60605;53.716;19.940;2023-09-30T13:23:22;100769.50;;;20.21;60.92
57900;BME280;60605;53.716;19.940;2023-09-30T13:28:27;100769.73;;;20.19;61.58
57900;BME280;60605;53.716;19.940;2023-09-30T13:33:31;100771.02;;;20.16;61.46
57900;BME280;60605;53.716;19.940;2023-09-30T13:38:34;100774.79;;;20.07;60.96
57900;BME280;60605;53.716;19.940;2023-09-30T13:43:38;100776.59;;;19.99;61.18
57900;BME280;60605;53.716;19.940;2023-09-30T13:48:42;100770.83;;;19.82;61.11
57900;BME280;60605;53.716;19.940;2023-09-30T13:53:45;100766.42;;;19.62;61.75
57900;BME280;60605;53.716;19.940;2023-09-30T13:58:49;100765.35;;;19.51;62.93
57900;BME280;60605;53.716;19.940;2023-09-30T14:03:52;100761.55;;;19.60;63.77
57900;BME280;60605;53.716;19.940;2023-09-30T14:09:00;100761.13;;;19.75;63.35
57900;BME280;60605;53.716;19.940;2023-09-30T14:14:04;100764.06;;;19.82;63.16
57900;BME280;60605;53.716;19.940;2023-09-30T14:19:07;100760.23;;;19.88;63.22
57900;BME280;60605;53.716;19.940;2023-09-30T14:24:11;100761.78;;;19.86;62.93
57900;BME280;60605;53.716;19.940;2023-09-30T14:29:14;100761.04;;;19.81;62.79
57900;BME280;60605;53.716;19.940;2023-09-30T14:34:17;100759.42;;;19.77;62.58
57900;BME280;60605;53.716;19.940;2023-09-30T14:39:21;100755.61;;;19.71;62.46
57900;BME280;60605;53.716;19.940;2023-09-30T14:44:24;100747.45;;;19.64;62.51
57900;BME280;60605;53.716;19.940;2023-09-30T14:49:30;100746.13;;;19.54;62.66
57900;BME280;60605;53.716;19.940;2023-09-30T14:54:34;100739.11;;;19.41;63.26
57900;BME280;60605;53.716;19.940;2023-09-30T14:59:37;100741.62;;;19.26;63.45
57900;BME280;60605;53.716;19.940;2023-09-30T15:04:40;100748.29;;;19.09;63.78
57900;BME280;60605;53.716;19.940;2023-09-30T15:09:44;100752.95;;;18.91;63.93
57900;BME280;60605;53.716;19.940;2023-09-30T15:14:47;100756.29;;;18.74;64.50
57900;BME280;60605;53.716;19.940;2023-09-30T15:19:51;100754.85;;;18.61;65.02
57900;BME280;60605;53.716;19.940;2023-09-30T15:24:55;100764.20;;;18.50;65.21
57900;BME280;60605;53.716;19.940;2023-09-30T15:29:59;100767.29;;;18.40;65.81
57900;BME280;60605;53.716;19.940;2023-09-30T15:35:03;100774.23;;;18.26;66.09
57900;BME280;60605;53.716;19.940;2023-09-30T15:40:09;100781.64;;;18.12;66.71
57900;BME280;60605;53.716;19.940;2023-09-30T15:45:13;100783.64;;;18.00;67.38
57900;BME280;60605;53.716;19.940;2023-09-30T15:50:16;100790.54;;;17.90;67.34
57900;BME280;60605;53.716;19.940;2023-09-30T15:55:20;100795.67;;;17.81;67.53
57900;BME280;60605;53.716;19.940;2023-09-30T16:00:24;100799.86;;;17.69;67.73
57900;BME280;60605;53.716;19.940;2023-09-30T16:05:29;100804.90;;;17.52;68.38
57900;BME280;60605;53.716;19.940;2023-09-30T16:10:33;100803.43;;;17.31;68.63
57900;BME280;60605;53.716;19.940;2023-09-30T16:15:40;100805.67;;;17.05;69.64
57900;BME280;60605;53.716;19.940;2023-09-30T16:20:44;100815.44;;;16.78;70.56
57900;BME280;60605;53.716;19.940;2023-09-30T16:25:50;100822.71;;;16.52;71.16
57900;BME280;60605;53.716;19.940;2023-09-30T16:30:59;100821.33;;;16.23;71.84
57900;BME280;60605;53.716;19.940;2023-09-30T16:36:04;100822.61;;;15.93;72.84
57900;BME280;60605;53.716;19.940;2023-09-30T16:41:12;100827.70;;;15.64;73.92
57900;BME280;60605;53.716;19.940;2023-09-30T16:46:19;100832.20;;;15.37;75.08
57900;BME280;60605;53.716;19.940;2023-09-30T16:51:24;100832.75;;;15.11;76.10
57900;BME280;60605;53.716;19.940;2023-09-30T16:56:28;100838.73;;;14.87;77.12
57900;BME280;60605;53.716;19.940;2023-09-30T17:01:32;100841.64;;;14.65;78.26
57900;BME280;60605;53.716;19.940;2023-09-30T17:06:36;100848.08;;;14.46;79.57
57900;BME280;60605;53.716;19.940;2023-09-30T17:11:44;100853.63;;;14.29;80.71
57900;BME280;60605;53.716;19.940;2023-09-30T17:16:48;100848.00;;;14.18;82.10
57900;BME280;60605;53.716;19.940;2023-09-30T17:21:51;100846.93;;;14.14;83.37
57900;BME280;60605;53.716;19.940;2023-09-30T17:26:55;100844.39;;;14.12;83.97
57900;BME280;60605;53.716;19.940;2023-09-30T17:32:00;100845.31;;;14.09;84.20
57900;BME280;60605;53.716;19.940;2023-09-30T17:37:06;100845.42;;;14.03;84.50
57900;BME280;60605;53.716;19.940;2023-09-30T17:42:13;100845.23;;;13.93;84.52
57900;BME280;60605;53.716;19.940;2023-09-30T17:47:18;100847.29;;;13.78;84.88
57900;BME280;60605;53.716;19.940;2023-09-30T17:52:23;100854.38;;;13.64;85.27
57900;BME280;60605;53.716;19.940;2023-09-30T17:57:27;100853.15;;;13.50;85.65
57900;BME280;60605;53.716;19.940;2023-09-30T18:02:30;100853.30;;;13.36;86.11
57900;BME280;60605;53.716;19.940;2023-09-30T18:07:34;100854.31;;;13.23;86.54
57900;BME280;60605;53.716;19.940;2023-09-30T18:12:38;100851.08;;;13.11;86.86
57900;BME280;60605;53.716;19.940;2023-09-30T18:17:42;100854.92;;;13.00;87.31
57900;BME280;60605;53.716;19.940;2023-09-30T18:22:59;100854.43;;;12.90;87.83
57900;BME280;60605;53.716;19.940;2023-09-30T18:28:05;100861.88;;;12.86;88.73
57900;BME280;60605;53.716;19.940;2023-09-30T18:33:11;100867.25;;;12.86;89.67
57900;BME280;60605;53.716;19.940;2023-09-30T18:38:17;100873.05;;;12.87;90.07
57900;BME280;60605;53.716;19.940;2023-09-30T18:43:21;100883.02;;;12.84;90.04
57900;BME280;60605;53.716;19.940;2023-09-30T18:48:27;100886.46;;;12.77;90.71
57900;BME280;60605;53.716;19.940;2023-09-30T18:53:30;100892.90;;;12.70;91.39
57900;BME280;60605;53.716;19.940;2023-09-30T18:58:34;100898.90;;;12.63;91.68
57900;BME280;60605;53.716;19.940;2023-09-30T19:03:38;100900.60;;;12.57;92.18
57900;BME280;60605;53.716;19.940;2023-09-30T19:08:43;100901.75;;;12.49;92.17
57900;BME280;60605;53.716;19.940;2023-09-30T19:13:46;100904.70;;;12.39;92.45
57900;BME280;60605;53.716;19.940;2023-09-30T19:18:49;100905.75;;;12.28;92.61
57900;BME280;60605;53.716;19.940;2023-09-30T19:23:54;100909.27;;;12.18;93.42
57900;BME280;60605;53.716;19.940;2023-09-30T19:28:58;100909.85;;;12.12;94.05
57900;BME280;60605;53.716;19.940;2023-09-30T19:34:05;100907.54;;;12.10;94.80
57900;BME280;60605;53.716;19.940;2023-09-30T19:39:08;100908.02;;;12.12;95.57
57900;BME280;60605;53.716;19.940;2023-09-30T19:44:13;100909.84;;;12.19;96.08
57900;BME280;60605;53.716;19.940;2023-09-30T19:49:17;100908.38;;;12.27;95.92
57900;BME280;60605;53.716;19.940;2023-09-30T19:54:20;100902.96;;;12.33;95.62
57900;BME280;60605;53.716;19.940;2023-09-30T19:59:24;100902.99;;;12.38;95.67
57900;BME280;60605;53.716;19.940;2023-09-30T20:04:29;100908.55;;;12.42;95.39
57900;BME280;60605;53.716;19.940;2023-09-30T20:09:32;100909.86;;;12.43;95.30
57900;BME280;60605;53.716;19.940;2023-09-30T20:14:38;100910.90;;;12.40;95.11
57900;BME280;60605;53.716;19.940;2023-09-30T20:19:43;100920.64;;;12.35;95.07
57900;BME280;60605;53.716;19.940;2023-09-30T20:24:49;100914.15;;;12.30;95.12
57900;BME280;60605;53.716;19.940;2023-09-30T20:29:58;100911.45;;;12.23;95.03
57900;BME280;60605;53.716;19.940;2023-09-30T20:35:02;100916.20;;;12.15;95.50
57900;BME280;60605;53.716;19.940;2023-09-30T20:40:09;100919.77;;;12.08;95.72
57900;BME280;60605;53.716;19.940;2023-09-30T20:45:16;100922.74;;;12.03;96.07
57900;BME280;60605;53.716;19.940;2023-09-30T20:50:19;100930.05;;;11.99;96.32
57900;BME280;60605;53.716;19.940;2023-09-30T20:55:23;100928.81;;;11.97;96.72
57900;BME280;60605;53.716;19.940;2023-09-30T21:00:27;100923.16;;;11.97;96.84
57900;BME280;60605;53.716;19.940;2023-09-30T21:05:31;100926.76;;;11.94;97.01
57900;BME280;60605;53.716;19.940;2023-09-30T21:10:39;100922.47;;;11.91;97.24
57900;BME280;60605;53.716;19.940;2023-09-30T21:15:43;100922.64;;;11.87;97.24
57900;BME280;60605;53.716;19.940;2023-09-30T21:20:47;100919.81;;;11.81;97.13
57900;BME280;60605;53.716;19.940;2023-09-30T21:25:50;100915.38;;;11.71;97.18
57900;BME280;60605;53.716;19.940;2023-09-30T21:30:54;100917.45;;;11.61;97.16
57900;BME280;60605;53.716;19.940;2023-09-30T21:35:58;100912.52;;;11.49;97.34
57900;BME280;60605;53.716;19.940;2023-09-30T21:41:11;100903.62;;;11.36;97.89
57900;BME280;60605;53.716;19.940;2023-09-30T21:46:17;100898.20;;;11.28;98.70
57900;BME280;60605;53.716;19.940;2023-09-30T21:51:21;100901.19;;;11.21;99.38
57900;BME280;60605;53.716;19.940;2023-09-30T21:56:25;100900.20;;;11.12;99.63
57900;BME280;60605;53.716;19.940;2023-09-30T22:01:28;100904.41;;;11.04;99.96
57900;BME280;60605;53.716;19.940;2023-09-30T22:06:35;100902.59;;;10.96;100.00
57900;BME280;60605;53.716;19.940;2023-09-30T22:11:39;100900.63;;;10.90;100.00
57900;BME280;60605;53.716;19.940;2023-09-30T22:16:43;100901.52;;;10.84;100.00
57900;BME280;60605;53.716;19.940;2023-09-30T22:21:46;100908.38;;;10.80;100.00
57900;BME280;60605;53.716;19.940;2023-09-30T22:26:49;100909.52;;;10.77;100.00
57900;BME280;60605;53.716;19.940;2023-09-30T22:31:53;100908.02;;;10.76;100.00
57900;BME280;60605;53.716;19.940;2023-09-30T22:36:57;100907.57;;;10.73;100.00
57900;BME280;60605;53.716;19.940;2023-09-30T22:42:02;100910.38;;;10.69;100.00
57900;BME280;60605;53.716;19.940;2023-09-30T22:47:06;100909.15;;;10.70;100.00
57900;BME280;60605;53.716;19.940;2023-09-30T22:52:10;100907.75;;;10.69;100.00
57900;BME280;60605;53.716;19.940;2023-09-30T22:57:13;100908.06;;;10.67;100.00
57900;BME280;60605;53.716;19.940;2023-09-30T23:02:17;100910.91;;;10.69;100.00
57900;BME280;60605;53.716;19.940;2023-09-30T23:07:20;100904.14;;;10.75;100.00
57900;BME280;60605;53.716;19.940;2023-09-30T23:12:25;100897.22;;;10.79;100.00
57900;BME280;60605;53.716;19.940;2023-09-30T23:17:28;100894.71;;;10.81;100.00
57900;BME280;60605;53.716;19.940;2023-09-30T23:22:31;100900.48;;;10.82;100.00
57900;BME280;60605;53.716;19.940;2023-09-30T23:27:35;100906.45;;;10.83;100.00
57900;BME280;60605;53.716;19.940;2023-09-30T23:32:38;100906.64;;;10.83;100.00
57900;BME280;60605;53.716;19.940;2023-09-30T23:37:44;100896.80;;;10.81;100.00
57900;BME280;60605;53.716;19.940;2023-09-30T23:42:48;100896.44;;;10.79;100.00
57900;BME280;60605;53.716;19.940;2023-09-30T23:47:52;100892.20;;;10.77;100.00
57900;BME280;60605;53.716;19.940;2023-09-30T23:52:57;100895.16;;;10.74;100.00
57900;BME280;60605;53.716;19.940;2023-09-30T23:58:01;100895.92;;;10.73;100.00
